Time;durP1;ratioP1;P1;durP2;ratioP2;P2;SDS_P1;SDS_P2;PMS_P1;PMS_P2;Temp;Humidity;BMP_temperature;BMP_pressure;BME280_temperature;BME280_humidity;BME280_pressure;Samples;Min_cycle;Max_cycle;Signal;HPM_P1;HPM_P2
2023/06/08 00:04:52;;;;;;;23.48;16.80;;;;;;;;;;10413118;28;20041;-87
2023/06/08 00:09:53;;;;;;;20.40;15.75;;;;;;;;;;10425294;28;20036;-85
2023/06/08 00:14:54;;;;;;;20.23;14.55;;;;;;;;;;10450688;28;20025;-85
2023/06/08 00:19:56;;;;;;;19.40;14.38;;;;;;;;;;10450504;28;20033;-85
2023/06/08 00:24:58;;;;;;;22.10;15.52;;;;;;;;;;10444780;28;20154;-85
2023/06/08 00:29:59;;;;;;;24.65;15.85;;;;;;;;;;10449746;28;20021;-87
2023/06/08 00:35:00;;;;;;;24.80;16.73;;;;;;;;;;10449479;28;20032;-85
2023/06/08 00:40:01;;;;;;;22.52;15.75;;;;;;;;;;10420728;28;20029;-86
2023/06/08 00:45:02;;;;;;;24.70;16.00;;;;;;;;;;10430718;28;20053;-87
2023/06/08 00:50:03;;;;;;;20.00;14.18;;;;;;;;;;10448848;28;20113;-86
2023/06/08 00:55:06;;;;;;;17.33;12.57;;;;;;;;;;10439173;28;20025;-87
2023/06/08 01:00:11;;;;;;;26.52;17.85;;;;;;;;;;10429910;28;20040;-85
2023/06/08 01:05:12;;;;;;;26.45;17.80;;;;;;;;;;10430310;28;20032;-86
2023/06/08 01:10:33;;;;;;;33.97;22.55;;;;;;;;;;10424783;28;20189;-85
2023/06/08 01:15:46;;;;;;;32.42;20.70;;;;;;;;;;10430605;28;20111;-86
2023/06/08 01:21:11;;;;;;;38.13;26.10;;;;;;;;;;10429403;28;20033;-85
2023/06/08 01:26:15;;;;;;;37.78;25.00;;;;;;;;;;10422900;28;20041;-85
2023/06/08 01:31:17;;;;;;;40.10;25.67;;;;;;;;;;10429748;28;20009;-85
2023/06/08 01:36:22;;;;;;;35.33;22.60;;;;;;;;;;10428821;28;20488;-87
2023/06/08 01:41:24;;;;;;;22.02;14.90;;;;;;;;;;10439897;28;20446;-84
2023/06/08 01:46:28;;;;;;;34.22;21.58;;;;;;;;;;10447324;28;20059;-86
2023/06/08 01:51:30;;;;;;;37.58;22.85;;;;;;;;;;10426423;28;20116;-86
2023/06/08 01:56:31;;;;;;;33.40;20.40;;;;;;;;;;10425659;28;20120;-85
2023/06/08 02:01:32;;;;;;;33.47;21.13;;;;;;;;;;10428786;28;20395;-85
2023/06/08 02:06:33;;;;;;;29.92;18.25;;;;;;;;;;10446464;28;20031;-85
2023/06/08 02:11:34;;;;;;;30.15;19.27;;;;;;;;;;10438172;28;20491;-86
2023/06/08 02:16:35;;;;;;;30.30;18.70;;;;;;;;;;10442522;28;20026;-85
2023/06/08 02:21:36;;;;;;;24.15;15.80;;;;;;;;;;10441604;28;20057;-85
2023/06/08 02:26:38;;;;;;;22.25;15.38;;;;;;;;;;10424310;28;20115;-86
2023/06/08 02:31:39;;;;;;;32.40;18.13;;;;;;;;;;10441312;28;20107;-87
2023/06/08 02:36:40;;;;;;;37.88;22.35;;;;;;;;;;10427563;28;20021;-85
2023/06/08 02:41:41;;;;;;;31.15;18.83;;;;;;;;;;10421439;28;20057;-85
2023/06/08 02:46:42;;;;;;;32.58;19.35;;;;;;;;;;10446007;28;20055;-86
2023/06/08 02:51:43;;;;;;;36.65;19.83;;;;;;;;;;10435391;28;20031;-85
2023/06/08 02:56:45;;;;;;;29.88;18.23;;;;;;;;;;10417275;28;20043;-85
2023/06/08 03:01:53;;;;;;;33.00;18.42;;;;;;;;;;10444160;28;20029;-85
2023/06/08 03:06:54;;;;;;;27.65;16.73;;;;;;;;;;10428524;28;20108;-85
2023/06/08 03:11:56;;;;;;;35.45;18.95;;;;;;;;;;10426477;28;20071;-84
2023/06/08 03:16:57;;;;;;;23.73;15.43;;;;;;;;;;10423989;28;20029;-86
2023/06/08 03:22:04;;;;;;;24.17;15.68;;;;;;;;;;10413547;28;20382;-86
2023/06/08 03:27:08;;;;;;;28.17;16.98;;;;;;;;;;10435220;28;20071;-85
2023/06/08 03:32:09;;;;;;;26.85;17.23;;;;;;;;;;10447774;28;20033;-85
2023/06/08 03:37:10;;;;;;;21.75;14.93;;;;;;;;;;10451516;28;20056;-85
2023/06/08 03:42:11;;;;;;;29.92;18.20;;;;;;;;;;10450255;28;20048;-85
2023/06/08 03:47:12;;;;;;;23.75;16.45;;;;;;;;;;10433759;28;20089;-85
2023/06/08 03:52:13;;;;;;;26.63;16.17;;;;;;;;;;10432387;28;20021;-85
2023/06/08 03:57:15;;;;;;;22.42;15.00;;;;;;;;;;10436417;28;20021;-86
2023/06/08 04:02:16;;;;;;;24.45;17.10;;;;;;;;;;10432970;28;20029;-85
2023/06/08 04:07:20;;;;;;;24.60;16.15;;;;;;;;;;10433821;28;20037;-86
2023/06/08 04:12:21;;;;;;;18.27;13.63;;;;;;;;;;10421112;28;20024;-87
2023/06/08 04:17:23;;;;;;;19.42;13.55;;;;;;;;;;10448798;28;20029;-85
2023/06/08 04:22:24;;;;;;;22.25;16.27;;;;;;;;;;10449315;28;20028;-86
2023/06/08 04:27:25;;;;;;;20.58;14.68;;;;;;;;;;10447464;28;20055;-86
2023/06/08 04:32:26;;;;;;;23.27;16.80;;;;;;;;;;10430337;28;20043;-86
2023/06/08 04:37:27;;;;;;;22.65;16.63;;;;;;;;;;10430070;28;20055;-85
2023/06/08 04:42:29;;;;;;;23.58;17.17;;;;;;;;;;10418744;28;20209;-86
2023/06/08 04:47:31;;;;;;;20.95;16.27;;;;;;;;;;10449440;28;20021;-87
2023/06/08 04:52:40;;;;;;;21.20;16.27;;;;;;;;;;10431338;28;20037;-86
2023/06/08 04:57:42;;;;;;;22.05;16.83;;;;;;;;;;10426498;28;20037;-87
2023/06/08 05:02:44;;;;;;;22.33;16.80;;;;;;;;;;10443438;28;20032;-86
2023/06/08 05:07:46;;;;;;;19.90;14.98;;;;;;;;;;10432082;28;20032;-86
2023/06/08 05:12:47;;;;;;;17.45;12.80;;;;;;;;;;10446911;28;20032;-87
2023/06/08 05:17:48;;;;;;;17.33;12.85;;;;;;;;;;10429443;28;20087;-86
2023/06/08 05:22:50;;;;;;;16.95;12.63;;;;;;;;;;10414440;28;20049;-87
2023/06/08 05:27:51;;;;;;;16.17;12.32;;;;;;;;;;10427867;28;20392;-85
2023/06/08 05:32:52;;;;;;;14.55;11.13;;;;;;;;;;10433763;28;20496;-86
2023/06/08 05:37:53;;;;;;;16.77;11.68;;;;;;;;;;10423361;28;20033;-88
2023/06/08 05:42:57;;;;;;;13.70;10.43;;;;;;;;;;10427777;28;20033;-89
2023/06/08 05:47:58;;;;;;;12.98;8.05;;;;;;;;;;10423090;28;20037;-85
2023/06/08 05:52:59;;;;;;;9.55;7.60;;;;;;;;;;10444786;28;20423;-83
2023/06/08 05:58:01;;;;;;;8.63;6.75;;;;;;;;;;10428724;28;20040;-85
2023/06/08 06:03:03;;;;;;;9.07;7.03;;;;;;;;;;10447435;28;20041;-88
2023/06/08 06:08:04;;;;;;;12.25;6.63;;;;;;;;;;10421109;28;20064;-85
2023/06/08 06:13:05;;;;;;;8.68;5.63;;;;;;;;;;10429647;28;20116;-85
2023/06/08 06:18:06;;;;;;;6.35;4.93;;;;;;;;;;10446934;28;20033;-84
2023/06/08 06:23:07;;;;;;;5.82;4.82;;;;;;;;;;10418659;28;20040;-86
2023/06/08 06:28:08;;;;;;;7.35;4.70;;;;;;;;;;10424447;28;20032;-86
2023/06/08 06:33:09;;;;;;;7.60;5.00;;;;;;;;;;10411047;28;20021;-86
2023/06/08 06:38:10;;;;;;;6.30;5.13;;;;;;;;;;10434589;28;20033;-87
2023/06/08 06:43:11;;;;;;;6.35;4.05;;;;;;;;;;10442978;28;20053;-85
2023/06/08 06:48:13;;;;;;;6.78;4.65;;;;;;;;;;10434655;28;20036;-85
2023/06/08 06:53:14;;;;;;;5.47;3.67;;;;;;;;;;10449856;28;20051;-87
2023/06/08 06:58:15;;;;;;;5.15;4.10;;;;;;;;;;10406530;28;20048;-86
2023/06/08 07:03:16;;;;;;;4.45;4.03;;;;;;;;;;10449733;28;20083;-84
2023/06/08 07:08:17;;;;;;;3.92;3.53;;;;;;;;;;10430899;28;20055;-88
2023/06/08 07:13:19;;;;;;;7.65;4.05;;;;;;;;;;10442979;28;20049;-88
2023/06/08 07:18:20;;;;;;;3.50;3.20;;;;;;;;;;10447660;28;20033;-86
2023/06/08 07:23:21;;;;;;;3.42;2.67;;;;;;;;;;10421289;28;20013;-86
2023/06/08 07:28:22;;;;;;;4.50;2.90;;;;;;;;;;10433412;28;20082;-86
2023/06/08 07:33:23;;;;;;;5.35;3.53;;;;;;;;;;10427671;28;20031;-85
2023/06/08 07:38:24;;;;;;;4.63;3.30;;;;;;;;;;10426494;28;20040;-86
2023/06/08 07:43:25;;;;;;;5.70;3.08;;;;;;;;;;10447609;28;20084;-87
2023/06/08 07:48:26;;;;;;;4.97;3.10;;;;;;;;;;10449213;28;20025;-86
2023/06/08 07:53:34;;;;;;;3.92;2.97;;;;;;;;;;10435122;28;20104;-86
2023/06/08 07:58:35;;;;;;;5.65;3.15;;;;;;;;;;10426423;28;20063;-86
2023/06/08 08:03:37;;;;;;;4.40;3.40;;;;;;;;;;10431074;28;20033;-85
2023/06/08 08:08:38;;;;;;;5.80;4.03;;;;;;;;;;10429750;28;20036;-86
2023/06/08 08:13:40;;;;;;;6.20;4.57;;;;;;;;;;10449176;28;20009;-85
2023/06/08 08:18:41;;;;;;;6.20;4.63;;;;;;;;;;10431167;28;20033;-86
2023/06/08 08:23:42;;;;;;;5.35;4.07;;;;;;;;;;10426964;28;20428;-86
2023/06/08 08:28:44;;;;;;;7.50;5.13;;;;;;;;;;10424017;28;20017;-86
2023/06/08 08:33:46;;;;;;;6.00;4.32;;;;;;;;;;10424158;28;20056;-87
2023/06/08 08:38:47;;;;;;;6.25;4.93;;;;;;;;;;10432914;28;20040;-86
2023/06/08 08:43:50;;;;;;;4.63;4.22;;;;;;;;;;10434216;28;20437;-86
2023/06/08 08:48:53;;;;;;;7.68;5.55;;;;;;;;;;10445370;28;20411;-86
2023/06/08 08:53:55;;;;;;;7.15;5.03;;;;;;;;;;10427397;28;20017;-88
2023/06/08 08:58:56;;;;;;;7.07;4.97;;;;;;;;;;10416669;28;20041;-87
2023/06/08 09:03:57;;;;;;;8.25;5.40;;;;;;;;;;10444193;28;20033;-89
2023/06/08 09:08:59;;;;;;;6.45;4.78;;;;;;;;;;10433489;28;20041;-89
2023/06/08 09:14:08;;;;;;;8.38;4.88;;;;;;;;;;10439680;22;20135;-90
2023/06/08 09:19:12;;;;;;;7.18;4.68;;;;;;;;;;10433334;28;20041;-88
2023/06/08 09:24:19;;;;;;;6.60;4.65;;;;;;;;;;10424543;28;20025;-90
2023/06/08 09:29:41;;;;;;;6.18;4.65;;;;;;;;;;10433051;28;20029;-90
2023/06/08 09:34:49;;;;;;;4.85;4.35;;;;;;;;;;10429759;28;20025;-90
2023/06/08 09:39:50;;;;;;;5.57;4.97;;;;;;;;;;10414620;28;20092;-90
2023/06/08 09:45:07;;;;;;;7.25;5.90;;;;;;;;;;10453730;28;20057;-89
2023/06/08 09:50:10;;;;;;;5.55;4.85;;;;;;;;;;10446716;28;20090;-87
2023/06/08 09:55:12;;;;;;;7.07;5.40;;;;;;;;;;10436987;28;20397;-90
2023/06/08 10:00:14;;;;;;;6.43;5.63;;;;;;;;;;10422759;28;20653;-88
2023/06/08 10:05:17;;;;;;;8.73;6.78;;;;;;;;;;10422004;28;20565;-89
2023/06/08 10:10:21;;;;;;;7.93;5.63;;;;;;;;;;10426497;28;20083;-88
2023/06/08 10:21:14;;;;;;;7.38;6.25;;;;;;;;;;10463275;28;20415;-86
2023/06/08 10:26:17;;;;;;;7.35;5.90;;;;;;;;;;10441776;28;20037;-87
2023/06/08 10:31:31;;;;;;;7.07;5.60;;;;;;;;;;10429835;28;20040;-86
2023/06/08 10:36:39;;;;;;;5.60;5.03;;;;;;;;;;10451876;28;20029;-85
2023/06/08 10:41:55;;;;;;;5.82;5.22;;;;;;;;;;10436121;28;20037;-88
2023/06/08 10:47:00;;;;;;;6.07;5.03;;;;;;;;;;10410559;28;20091;-87
2023/06/08 10:52:03;;;;;;;7.85;5.95;;;;;;;;;;10457803;28;20021;-88
2023/06/08 10:57:05;;;;;;;5.50;4.72;;;;;;;;;;10430722;28;20037;-88
2023/06/08 11:02:06;;;;;;;5.28;4.18;;;;;;;;;;10440955;28;20064;-88
2023/06/08 11:07:11;;;;;;;6.75;5.32;;;;;;;;;;10431950;28;20029;-87
2023/06/08 11:12:15;;;;;;;6.75;5.30;;;;;;;;;;10430202;28;20856;-91
2023/06/08 11:23:21;;;;;;;5.40;4.63;;;;;;;;;;10439933;28;20041;-85
2023/06/08 11:28:23;;;;;;;5.07;3.70;;;;;;;;;;10433706;28;20021;-86
2023/06/08 11:33:26;;;;;;;4.13;3.72;;;;;;;;;;10429700;28;20041;-89
2023/06/08 11:38:28;;;;;;;5.70;4.93;;;;;;;;;;10450893;28;20375;-90
2023/06/08 11:43:30;;;;;;;5.18;4.43;;;;;;;;;;10427005;28;20018;-89
2023/06/08 11:48:31;;;;;;;7.72;5.03;;;;;;;;;;10443427;28;20140;-87
2023/06/08 11:53:32;;;;;;;7.28;4.75;;;;;;;;;;10434963;28;20060;-87
2023/06/08 11:58:36;;;;;;;5.90;4.97;;;;;;;;;;10448533;28;20031;-87
2023/06/08 12:03:44;;;;;;;6.72;4.75;;;;;;;;;;10431326;28;20041;-88
2023/06/08 12:08:45;;;;;;;5.88;4.60;;;;;;;;;;10429410;28;20027;-86
2023/06/08 12:13:46;;;;;;;6.47;4.85;;;;;;;;;;10439518;28;20095;-87
2023/06/08 12:18:47;;;;;;;4.65;4.13;;;;;;;;;;10441211;28;20356;-87
2023/06/08 12:23:49;;;;;;;4.88;4.15;;;;;;;;;;10439009;28;20066;-89
2023/06/08 12:28:50;;;;;;;6.05;4.30;;;;;;;;;;10434704;28;20025;-87
2023/06/08 12:33:51;;;;;;;5.38;4.00;;;;;;;;;;10444890;28;20021;-89
2023/06/08 12:38:52;;;;;;;6.35;4.72;;;;;;;;;;10461303;28;20048;-88
2023/06/08 12:43:54;;;;;;;5.05;3.97;;;;;;;;;;10446838;28;20110;-88
2023/06/08 12:48:57;;;;;;;5.80;4.75;;;;;;;;;;10424830;28;20029;-87
2023/06/08 12:53:58;;;;;;;5.75;4.90;;;;;;;;;;10438980;28;20029;-88
2023/06/08 12:58:59;;;;;;;5.90;4.07;;;;;;;;;;10426885;28;20033;-88
2023/06/08 13:04:03;;;;;;;6.82;4.88;;;;;;;;;;10446091;28;20079;-88
2023/06/08 13:09:04;;;;;;;5.70;4.53;;;;;;;;;;10443134;28;20123;-87
2023/06/08 13:14:06;;;;;;;5.55;5.00;;;;;;;;;;10447811;28;20492;-86
2023/06/08 13:19:07;;;;;;;4.93;4.43;;;;;;;;;;10460129;28;20048;-87
2023/06/08 13:24:08;;;;;;;6.28;4.13;;;;;;;;;;10421706;28;20090;-85
2023/06/08 13:29:09;;;;;;;4.55;4.07;;;;;;;;;;10435771;28;20365;-88
2023/06/08 13:34:11;;;;;;;6.65;4.15;;;;;;;;;;10433087;28;20056;-86
2023/06/08 13:39:12;;;;;;;4.72;4.03;;;;;;;;;;10445414;28;20041;-85
2023/06/08 13:44:15;;;;;;;8.20;4.93;;;;;;;;;;10424797;28;20029;-87
2023/06/08 13:49:29;;;;;;;5.28;4.47;;;;;;;;;;10437552;28;20086;-87
2023/06/08 13:54:30;;;;;;;5.60;3.85;;;;;;;;;;10428344;28;20146;-89
2023/06/08 13:59:31;;;;;;;6.85;4.47;;;;;;;;;;10446320;28;20037;-87
2023/06/08 14:04:32;;;;;;;5.65;4.82;;;;;;;;;;10451088;28;20021;-89
2023/06/08 14:09:33;;;;;;;7.10;4.45;;;;;;;;;;10428361;28;20027;-86
2023/06/08 14:14:34;;;;;;;6.85;4.38;;;;;;;;;;10446657;28;20039;-87
2023/06/08 14:19:35;;;;;;;7.25;5.40;;;;;;;;;;10433718;28;20056;-87
2023/06/08 14:24:36;;;;;;;5.45;4.53;;;;;;;;;;10430826;28;20479;-89
2023/06/08 14:29:37;;;;;;;5.78;5.00;;;;;;;;;;10450154;28;20029;-88
2023/06/08 14:34:50;;;;;;;5.63;4.55;;;;;;;;;;10419676;28;20029;-90
2023/06/08 14:39:51;;;;;;;7.78;5.00;;;;;;;;;;10426796;28;20037;-88
2023/06/08 14:44:52;;;;;;;4.97;4.20;;;;;;;;;;10428829;28;20029;-87
2023/06/08 14:49:53;;;;;;;5.35;4.45;;;;;;;;;;10455234;28;20021;-85
2023/06/08 14:54:54;;;;;;;6.30;4.75;;;;;;;;;;10440996;28;20025;-89
2023/06/08 15:00:00;;;;;;;4.75;4.00;;;;;;;;;;10417900;28;20037;-89
2023/06/08 15:05:01;;;;;;;7.00;4.90;;;;;;;;;;10443225;28;20029;-86
2023/06/08 15:10:12;;;;;;;5.72;4.90;;;;;;;;;;10425618;28;20039;-91
2023/06/08 15:15:13;;;;;;;7.03;5.20;;;;;;;;;;10428917;28;20037;-88
2023/06/08 15:20:16;;;;;;;6.30;4.65;;;;;;;;;;10442095;28;20044;-86
2023/06/08 15:25:18;;;;;;;6.88;4.85;;;;;;;;;;10432855;28;20033;-89
2023/06/08 15:30:19;;;;;;;5.47;4.93;;;;;;;;;;10454581;28;20028;-85
2023/06/08 15:35:20;;;;;;;5.45;4.75;;;;;;;;;;10432455;28;20762;-88
2023/06/08 15:40:22;;;;;;;9.65;5.28;;;;;;;;;;10427154;28;20495;-87
2023/06/08 15:45:23;;;;;;;8.48;5.50;;;;;;;;;;10430782;28;20032;-87
2023/06/08 15:50:24;;;;;;;6.82;5.07;;;;;;;;;;10457236;28;20077;-87
2023/06/08 15:55:25;;;;;;;7.95;5.57;;;;;;;;;;10464333;28;20032;-88
2023/06/08 16:00:26;;;;;;;6.68;5.70;;;;;;;;;;10438401;28;20420;-89
2023/06/08 16:05:32;;;;;;;6.50;5.38;;;;;;;;;;10437839;28;20379;-89
2023/06/08 16:21:54;;;;;;;8.98;6.35;;;;;;;;;;10710237;22;20065;-90
2023/06/08 16:26:58;;;;;;;7.43;5.90;;;;;;;;;;10435665;28;20025;-88
2023/06/08 16:32:02;;;;;;;7.78;5.65;;;;;;;;;;10452117;28;20542;-90
2023/06/08 16:37:22;;;;;;;7.18;5.25;;;;;;;;;;10448587;28;20032;-88
2023/06/08 16:42:23;;;;;;;7.65;6.15;;;;;;;;;;10444200;28;20079;-87
2023/06/08 16:47:24;;;;;;;10.85;6.53;;;;;;;;;;10461735;28;20040;-87
2023/06/08 16:52:25;;;;;;;8.93;5.57;;;;;;;;;;10469588;28;20051;-90
2023/06/08 16:57:32;;;;;;;16.63;11.38;;;;;;;;;;10436593;28;20029;-90
2023/06/08 17:02:34;;;;;;;10.50;7.63;;;;;;;;;;10429117;28;20041;-89
2023/06/08 17:07:35;;;;;;;8.18;6.43;;;;;;;;;;10431860;28;20024;-88
2023/06/08 17:12:36;;;;;;;8.35;6.60;;;;;;;;;;10443179;28;20033;-87
2023/06/08 17:17:37;;;;;;;7.40;6.38;;;;;;;;;;10457109;28;20067;-91
2023/06/08 17:22:39;;;;;;;8.40;6.90;;;;;;;;;;10453484;28;20462;-91
2023/06/08 17:27:40;;;;;;;10.23;6.47;;;;;;;;;;10450629;28;20690;-90
2023/06/08 17:32:44;;;;;;;8.07;6.88;;;;;;;;;;10441578;28;20396;-91
2023/06/08 17:37:45;;;;;;;11.32;7.20;;;;;;;;;;10413041;28;20027;-86
2023/06/08 17:42:47;;;;;;;8.70;6.53;;;;;;;;;;10428770;28;20071;-90
2023/06/08 17:47:48;;;;;;;9.48;6.63;;;;;;;;;;10417076;28;20040;-87
2023/06/08 17:53:02;;;;;;;8.00;6.45;;;;;;;;;;10432922;28;20025;-88
2023/06/08 17:58:03;;;;;;;9.15;7.10;;;;;;;;;;10426152;28;20029;-86
2023/06/08 18:03:07;;;;;;;12.90;8.68;;;;;;;;;;10454218;28;20033;-89
2023/06/08 18:08:08;;;;;;;9.38;7.43;;;;;;;;;;10434072;28;20029;-86
2023/06/08 18:13:10;;;;;;;8.70;6.38;;;;;;;;;;10441151;28;20030;-86
2023/06/08 18:18:15;;;;;;;8.40;7.20;;;;;;;;;;10430176;28;20044;-86
2023/06/08 18:23:16;;;;;;;;;;;;;;;;;;10428567;28;20549;-87
2023/06/08 18:28:17;;;;;;;57.97;39.00;;;;;;;;;;10428331;28;19912;-87
2023/06/08 18:33:18;;;;;;;10.77;7.90;;;;;;;;;;10445628;28;20826;-86
2023/06/08 18:38:19;;;;;;;10.27;7.38;;;;;;;;;;10456577;28;20047;-88
2023/06/08 18:43:20;;;;;;;11.40;7.97;;;;;;;;;;10452474;28;20357;-88
2023/06/08 18:48:21;;;;;;;11.02;8.55;;;;;;;;;;10435500;28;20029;-86
2023/06/08 18:53:22;;;;;;;13.57;8.10;;;;;;;;;;10449187;28;20461;-86
2023/06/08 18:58:23;;;;;;;10.13;8.02;;;;;;;;;;10451369;28;20036;-87
2023/06/08 19:03:24;;;;;;;11.95;8.50;;;;;;;;;;10436405;28;20035;-87
2023/06/08 19:08:25;;;;;;;15.63;9.80;;;;;;;;;;10448532;28;20039;-85
2023/06/08 19:13:26;;;;;;;11.32;8.50;;;;;;;;;;10431260;28;20028;-85
2023/06/08 19:18:27;;;;;;;13.48;8.15;;;;;;;;;;10449407;28;20083;-84
2023/06/08 19:23:28;;;;;;;12.15;8.68;;;;;;;;;;10451059;28;20419;-84
2023/06/08 19:28:29;;;;;;;14.88;8.75;;;;;;;;;;10442711;28;20120;-86
2023/06/08 19:33:32;;;;;;;12.23;8.68;;;;;;;;;;10449340;28;20467;-84
2023/06/08 19:38:33;;;;;;;10.40;8.35;;;;;;;;;;10448557;28;20051;-87
2023/06/08 19:43:34;;;;;;;12.98;9.32;;;;;;;;;;10447983;28;20411;-85
2023/06/08 19:48:36;;;;;;;11.45;8.32;;;;;;;;;;10448723;28;20059;-85
2023/06/08 19:53:37;;;;;;;13.65;9.52;;;;;;;;;;10439811;28;20550;-85
2023/06/08 19:58:38;;;;;;;11.93;9.23;;;;;;;;;;10417012;28;20056;-86
2023/06/08 20:03:39;;;;;;;13.43;9.50;;;;;;;;;;10414377;28;20033;-86
2023/06/08 20:08:56;;;;;;;12.93;9.50;;;;;;;;;;10422042;28;20028;-87
2023/06/08 20:19:39;;;;;;;15.05;10.13;;;;;;;;;;10551967;22;20053;-86
2023/06/08 20:24:49;;;;;;;15.05;10.48;;;;;;;;;;10421673;28;20022;-88
2023/06/08 20:30:02;;;;;;;15.25;9.85;;;;;;;;;;10430986;28;20122;-90
2023/06/08 20:35:05;;;;;;;14.75;10.73;;;;;;;;;;10403901;28;20054;-88
2023/06/08 20:40:06;;;;;;;15.90;10.93;;;;;;;;;;10420488;28;20103;-89
2023/06/08 20:45:08;;;;;;;14.40;10.30;;;;;;;;;;10418108;28;20037;-89
2023/06/08 20:50:15;;;;;;;14.52;10.95;;;;;;;;;;10439254;28;20033;-87
2023/06/08 20:55:19;;;;;;;14.52;10.63;;;;;;;;;;10411340;28;20021;-86
2023/06/08 21:00:39;;;;;;;15.73;11.65;;;;;;;;;;10423165;28;20047;-87
2023/06/08 21:05:41;;;;;;;18.33;11.38;;;;;;;;;;10426659;28;20328;-86
2023/06/08 21:10:42;;;;;;;17.60;12.48;;;;;;;;;;10440688;28;20112;-86
2023/06/08 21:15:43;;;;;;;17.70;12.65;;;;;;;;;;10425456;28;20025;-87
2023/06/08 21:20:44;;;;;;;14.52;11.40;;;;;;;;;;10441012;28;20503;-87
2023/06/08 21:25:45;;;;;;;16.65;11.88;;;;;;;;;;10459145;28;20016;-87
2023/06/08 21:30:46;;;;;;;16.25;11.98;;;;;;;;;;10445639;28;20683;-87
2023/06/08 21:35:47;;;;;;;19.02;12.77;;;;;;;;;;10429293;28;20031;-87
2023/06/08 21:40:48;;;;;;;15.50;11.27;;;;;;;;;;10460459;28;20055;-88
2023/06/08 21:45:49;;;;;;;15.10;11.40;;;;;;;;;;10440851;28;20090;-87
2023/06/08 21:50:50;;;;;;;16.38;11.35;;;;;;;;;;10442304;28;20032;-90
2023/06/08 21:55:59;;;;;;;16.67;12.10;;;;;;;;;;10424739;28;20037;-86
2023/06/08 22:01:00;;;;;;;17.38;11.73;;;;;;;;;;10415801;28;20044;-90
2023/06/08 22:06:02;;;;;;;17.90;11.55;;;;;;;;;;10422851;22;20054;-90
2023/06/08 22:11:04;;;;;;;15.38;12.05;;;;;;;;;;10437003;28;20029;-90
2023/06/08 22:16:05;;;;;;;17.75;12.23;;;;;;;;;;10440850;28;20037;-88
2023/06/08 22:21:08;;;;;;;17.92;12.80;;;;;;;;;;10432713;28;20115;-88
2023/06/08 22:26:13;;;;;;;20.77;13.82;;;;;;;;;;10451883;28;20465;-90
2023/06/08 22:31:16;;;;;;;20.08;14.18;;;;;;;;;;10427912;28;20029;-90
2023/06/08 22:36:18;;;;;;;21.27;14.68;;;;;;;;;;10444192;28;20029;-89
2023/06/08 22:41:19;;;;;;;19.13;13.85;;;;;;;;;;10451747;28;20028;-88
2023/06/08 22:46:21;;;;;;;20.55;15.25;;;;;;;;;;10445307;28;20747;-89
2023/06/08 22:51:22;;;;;;;19.02;13.80;;;;;;;;;;10425589;28;20365;-90
2023/06/08 22:56:23;;;;;;;22.13;14.63;;;;;;;;;;10435988;28;20473;-89
2023/06/08 23:01:24;;;;;;;22.23;15.23;;;;;;;;;;10425285;28;20072;-90
2023/06/08 23:06:25;;;;;;;23.67;16.30;;;;;;;;;;10414570;28;20045;-92
2023/06/08 23:11:28;;;;;;;21.05;15.63;;;;;;;;;;10422792;28;20021;-90
2023/06/08 23:16:29;;;;;;;22.52;14.23;;;;;;;;;;10418503;28;20028;-90
2023/06/08 23:21:31;;;;;;;21.70;15.45;;;;;;;;;;10424759;28;20043;-90
2023/06/08 23:26:32;;;;;;;22.15;14.70;;;;;;;;;;10426685;28;20449;-90
2023/06/08 23:31:35;;;;;;;20.55;13.48;;;;;;;;;;10423489;28;20104;-90
2023/06/08 23:36:38;;;;;;;22.75;14.73;;;;;;;;;;10430797;28;20403;-89
2023/06/08 23:41:39;;;;;;;22.33;14.40;;;;;;;;;;10423046;28;20463;-88
2023/06/08 23:46:41;;;;;;;17.95;13.77;;;;;;;;;;10411869;28;20060;-89
2023/06/08 23:51:42;;;;;;;21.25;15.07;;;;;;;;;;10442748;28;20029;-90
2023/06/08 23:56:43;;;;;;;20.33;14.40;;;;;;;;;;10430436;28;20071;-90
